Time;durP1;ratioP1;P1;durP2;ratioP2;P2;SDS_P1;SDS_P2;PMS_P1;PMS_P2;Temp;Humidity;BMP_temperature;BMP_pressure;BME280_temperature;BME280_humidity;BME280_pressure;Samples;Min_cycle;Max_cycle;Signal;HPM_P1;HPM_P2
2023/09/15 00:02:45;;;;;;;13.38;9.25;;;;;;;;;;5047059;28;20045;-81
2023/09/15 00:05:33;;;;;;;15.07;9.95;;;;;;;;;;5038722;28;20053;-82
2023/09/15 00:08:19;;;;;;;14.13;10.00;;;;;;;;;;5046906;28;20049;-82
2023/09/15 00:11:08;;;;;;;12.00;9.60;;;;;;;;;;5038586;28;20053;-82
2023/09/15 00:13:53;;;;;;;15.75;9.82;;;;;;;;;;5031926;28;20403;-81
2023/09/15 00:16:40;;;;;;;12.68;8.75;;;;;;;;;;5046610;28;20041;-81
2023/09/15 00:19:25;;;;;;;12.15;9.30;;;;;;;;;;5042894;28;20045;-81
2023/09/15 00:22:11;;;;;;;14.80;10.00;;;;;;;;;;5046399;28;20057;-81
2023/09/15 00:24:56;;;;;;;11.15;9.57;;;;;;;;;;5031772;28;20037;-82
2023/09/15 00:27:42;;;;;;;13.85;9.52;;;;;;;;;;5046855;28;20041;-82
2023/09/15 00:30:28;;;;;;;15.60;9.98;;;;;;;;;;5038342;28;20480;-84
2023/09/15 00:33:13;;;;;;;14.15;10.07;;;;;;;;;;5037943;28;20312;-81
2023/09/15 00:36:00;;;;;;;13.52;8.88;;;;;;;;;;5046981;28;20040;-81
2023/09/15 00:38:45;;;;;;;15.82;10.40;;;;;;;;;;5038164;28;20077;-84
2023/09/15 00:41:31;;;;;;;14.55;9.95;;;;;;;;;;5045689;28;20038;-83
2023/09/15 00:44:16;;;;;;;16.75;9.90;;;;;;;;;;5048129;28;20041;-83
2023/09/15 00:47:03;;;;;;;16.73;9.88;;;;;;;;;;5031880;28;20033;-82
2023/09/15 00:49:49;;;;;;;16.73;9.27;;;;;;;;;;5031158;28;20045;-82
2023/09/15 00:52:34;;;;;;;12.98;9.65;;;;;;;;;;5046447;28;20740;-81
2023/09/15 00:55:24;;;;;;;11.93;9.52;;;;;;;;;;5046024;28;20052;-82
2023/09/15 00:58:13;;;;;;;16.25;9.93;;;;;;;;;;5037558;28;20044;-82
2023/09/15 01:00:59;;;;;;;11.45;9.02;;;;;;;;;;5040176;28;20052;-81
2023/09/15 01:03:45;;;;;;;17.73;10.02;;;;;;;;;;5044539;28;20045;-81
2023/09/15 01:06:33;;;;;;;11.95;9.15;;;;;;;;;;5049359;28;20487;-82
2023/09/15 01:09:20;;;;;;;14.02;9.85;;;;;;;;;;5041181;28;20076;-81
2023/09/15 01:12:07;;;;;;;14.23;9.95;;;;;;;;;;5039986;28;20029;-81
2023/09/15 01:14:53;;;;;;;12.43;9.50;;;;;;;;;;5038065;28;20053;-80
2023/09/15 01:17:54;;;;;;;14.68;9.55;;;;;;;;;;5030262;28;20040;-83
2023/09/15 01:21:13;;;;;;;13.52;9.02;;;;;;;;;;5046914;28;20049;-82
2023/09/15 01:24:31;;;;;;;15.35;9.18;;;;;;;;;;5045281;28;20045;-81
2023/09/15 01:27:41;;;;;;;13.75;9.82;;;;;;;;;;5003100;28;20052;-82
2023/09/15 01:30:29;;;;;;;16.27;9.55;;;;;;;;;;5042807;28;20040;-83
2023/09/15 01:33:24;;;;;;;14.05;10.32;;;;;;;;;;5048793;28;20056;-83
2023/09/15 01:36:10;;;;;;;15.13;9.60;;;;;;;;;;5025182;28;20484;-81
2023/09/15 01:38:55;;;;;;;17.15;9.65;;;;;;;;;;5030877;28;20061;-81
2023/09/15 01:41:41;;;;;;;13.95;10.55;;;;;;;;;;5046699;28;20056;-83
2023/09/15 01:44:27;;;;;;;19.98;10.50;;;;;;;;;;5046205;28;20061;-83
2023/09/15 01:47:17;;;;;;;19.98;13.07;;;;;;;;;;5046200;28;20048;-82
2023/09/15 01:50:07;;;;;;;22.30;13.20;;;;;;;;;;5046996;28;20056;-83
2023/09/15 01:52:54;;;;;;;18.45;12.40;;;;;;;;;;5031096;28;20036;-83
2023/09/15 01:55:41;;;;;;;22.55;13.27;;;;;;;;;;5037579;28;20057;-83
2023/09/15 01:58:26;;;;;;;18.13;12.15;;;;;;;;;;5031338;28;20040;-82
2023/09/15 02:01:12;;;;;;;15.45;11.02;;;;;;;;;;5037809;28;20037;-83
2023/09/15 02:03:58;;;;;;;13.15;10.68;;;;;;;;;;5045706;28;20053;-83
2023/09/15 02:06:43;;;;;;;18.08;10.68;;;;;;;;;;5037069;28;20403;-82
2023/09/15 02:09:29;;;;;;;12.50;9.95;;;;;;;;;;5035901;28;20045;-81
2023/09/15 02:12:14;;;;;;;15.32;10.10;;;;;;;;;;5038055;28;20056;-82
2023/09/15 02:14:59;;;;;;;14.18;9.80;;;;;;;;;;5037661;28;20061;-80
2023/09/15 02:17:44;;;;;;;11.65;9.70;;;;;;;;;;5052335;28;20049;-81
2023/09/15 02:20:30;;;;;;;17.13;10.48;;;;;;;;;;5046509;28;20480;-81
2023/09/15 02:23:15;;;;;;;15.73;10.40;;;;;;;;;;5047760;28;20045;-81
2023/09/15 02:26:03;;;;;;;17.02;10.27;;;;;;;;;;5050358;28;20507;-81
2023/09/15 02:28:47;;;;;;;18.58;11.30;;;;;;;;;;5041608;28;20403;-81
2023/09/15 02:31:32;;;;;;;16.58;10.10;;;;;;;;;;5041497;28;20411;-81
2023/09/15 02:34:18;;;;;;;16.23;9.50;;;;;;;;;;5034523;28;20049;-81
2023/09/15 02:37:04;;;;;;;15.52;9.82;;;;;;;;;;5035664;28;20045;-83
2023/09/15 02:39:49;;;;;;;15.18;10.30;;;;;;;;;;5042406;28;20045;-81
2023/09/15 02:42:35;;;;;;;12.38;9.98;;;;;;;;;;5040688;28;20483;-81
2023/09/15 02:45:20;;;;;;;17.27;10.02;;;;;;;;;;5052188;28;20057;-80
2023/09/15 02:48:06;;;;;;;17.55;11.18;;;;;;;;;;5041436;28;20045;-81
2023/09/15 02:50:52;;;;;;;18.35;11.25;;;;;;;;;;5041364;28;20048;-82
2023/09/15 02:53:38;;;;;;;16.17;10.75;;;;;;;;;;5041351;28;20036;-81
2023/09/15 02:56:24;;;;;;;13.25;9.32;;;;;;;;;;5039015;28;20053;-82
2023/09/15 02:59:10;;;;;;;12.45;10.45;;;;;;;;;;5050628;28;20045;-81
2023/09/15 03:01:56;;;;;;;13.80;9.95;;;;;;;;;;5043576;28;20393;-81
2023/09/15 03:04:46;;;;;;;13.80;10.60;;;;;;;;;;5040810;28;20033;-81
2023/09/15 03:07:32;;;;;;;13.20;10.27;;;;;;;;;;5041729;28;20040;-82
2023/09/15 03:10:17;;;;;;;18.38;10.60;;;;;;;;;;5049280;28;20053;-82
2023/09/15 03:13:05;;;;;;;14.77;10.27;;;;;;;;;;5041129;28;20040;-80
2023/09/15 03:15:51;;;;;;;16.42;10.32;;;;;;;;;;5040706;28;20041;-80
2023/09/15 03:18:38;;;;;;;16.42;10.15;;;;;;;;;;5041258;28;20255;-80
2023/09/15 03:21:25;;;;;;;18.05;10.23;;;;;;;;;;5041023;28;20404;-80
2023/09/15 03:24:11;;;;;;;13.32;9.73;;;;;;;;;;5049206;28;20049;-81
2023/09/15 03:26:56;;;;;;;14.52;10.15;;;;;;;;;;5048911;28;20045;-81
2023/09/15 03:29:41;;;;;;;13.93;9.50;;;;;;;;;;5040897;28;20816;-80
2023/09/15 03:32:27;;;;;;;13.73;9.60;;;;;;;;;;5040691;28;20482;-81
2023/09/15 03:35:13;;;;;;;13.63;10.00;;;;;;;;;;5040376;28;20045;-81
2023/09/15 03:37:58;;;;;;;16.70;9.32;;;;;;;;;;5040621;28;20407;-79
2023/09/15 03:40:44;;;;;;;18.90;10.00;;;;;;;;;;5027018;28;20373;-80
2023/09/15 03:43:29;;;;;;;15.95;10.90;;;;;;;;;;5040465;28;20052;-81
2023/09/15 03:46:16;;;;;;;14.13;10.60;;;;;;;;;;5026744;28;20041;-81
2023/09/15 03:49:03;;;;;;;14.50;10.07;;;;;;;;;;5040497;28;20037;-81
2023/09/15 03:51:49;;;;;;;14.95;9.88;;;;;;;;;;5048415;28;20476;-82
2023/09/15 03:54:36;;;;;;;20.70;10.95;;;;;;;;;;5040183;28;20044;-81
2023/09/15 03:57:22;;;;;;;13.98;8.85;;;;;;;;;;5048594;28;20041;-82
2023/09/15 04:00:15;;;;;;;16.02;10.02;;;;;;;;;;5048529;28;20380;-82
2023/09/15 04:03:03;;;;;;;20.20;10.93;;;;;;;;;;5048544;28;20488;-82
2023/09/15 04:05:49;;;;;;;16.52;10.05;;;;;;;;;;5046032;28;20040;-81
2023/09/15 04:08:35;;;;;;;21.58;10.45;;;;;;;;;;5040263;28;20044;-83
2023/09/15 04:11:21;;;;;;;20.58;10.23;;;;;;;;;;5040033;28;20056;-81
2023/09/15 04:14:07;;;;;;;15.52;9.90;;;;;;;;;;5047778;28;20037;-82
2023/09/15 04:16:53;;;;;;;15.95;10.05;;;;;;;;;;5047635;28;20064;-81
2023/09/15 04:19:38;;;;;;;15.95;10.27;;;;;;;;;;5047838;28;20476;-79
2023/09/15 04:22:25;;;;;;;17.67;10.38;;;;;;;;;;5036764;28;20045;-80
2023/09/15 04:25:11;;;;;;;18.58;10.75;;;;;;;;;;5039751;28;20479;-78
2023/09/15 04:27:58;;;;;;;14.82;9.88;;;;;;;;;;5039344;28;20049;-78
2023/09/15 04:30:42;;;;;;;14.52;10.23;;;;;;;;;;5048194;28;20048;-79
2023/09/15 04:33:30;;;;;;;18.13;10.38;;;;;;;;;;5039848;28;20036;-80
2023/09/15 04:36:16;;;;;;;13.38;9.70;;;;;;;;;;5042935;28;20037;-81
2023/09/15 04:39:01;;;;;;;18.63;10.15;;;;;;;;;;5042429;28;20041;-80
2023/09/15 04:41:47;;;;;;;14.02;10.13;;;;;;;;;;5042532;28;20483;-79
2023/09/15 04:44:32;;;;;;;16.02;9.85;;;;;;;;;;5041276;28;20079;-80
2023/09/15 04:47:31;;;;;;;14.05;10.10;;;;;;;;;;5041252;28;20041;-79
2023/09/15 04:50:19;;;;;;;14.98;9.60;;;;;;;;;;5040177;28;20048;-79
2023/09/15 04:53:07;;;;;;;14.10;10.07;;;;;;;;;;5034691;28;20423;-78
2023/09/15 04:55:53;;;;;;;15.93;10.77;;;;;;;;;;5037247;28;20475;-79
2023/09/15 04:58:38;;;;;;;18.30;13.50;;;;;;;;;;5051919;28;20044;-79
2023/09/15 05:01:24;;;;;;;27.52;16.38;;;;;;;;;;5045837;28;20076;-80
2023/09/15 05:04:10;;;;;;;21.73;14.55;;;;;;;;;;5047697;28;20048;-82
2023/09/15 05:06:55;;;;;;;20.73;12.73;;;;;;;;;;5023920;28;20476;-80
2023/09/15 05:09:40;;;;;;;18.67;11.82;;;;;;;;;;5038277;28;20057;-80
2023/09/15 05:12:26;;;;;;;19.00;10.63;;;;;;;;;;5031421;28;20033;-79
2023/09/15 05:15:12;;;;;;;18.38;10.45;;;;;;;;;;5032077;28;20041;-80
2023/09/15 05:17:58;;;;;;;14.30;10.10;;;;;;;;;;5039006;28;20407;-79
2023/09/15 05:20:46;;;;;;;20.83;10.23;;;;;;;;;;5038867;28;20483;-78
2023/09/15 05:23:31;;;;;;;12.52;8.95;;;;;;;;;;5046399;28;20053;-81
2023/09/15 05:26:17;;;;;;;13.00;10.20;;;;;;;;;;5048757;28;20315;-80
2023/09/15 05:29:03;;;;;;;14.95;10.10;;;;;;;;;;5031944;28;20040;-78
2023/09/15 05:31:48;;;;;;;16.52;10.88;;;;;;;;;;5038092;28;20048;-79
2023/09/15 05:34:35;;;;;;;17.83;10.45;;;;;;;;;;5038166;28;20049;-79
2023/09/15 05:37:20;;;;;;;15.13;10.57;;;;;;;;;;5046952;28;20037;-79
2023/09/15 05:40:07;;;;;;;15.43;11.13;;;;;;;;;;5038101;28;20041;-79
2023/09/15 05:42:57;;;;;;;17.02;10.98;;;;;;;;;;5044890;28;20044;-80
2023/09/15 05:45:43;;;;;;;19.27;12.23;;;;;;;;;;5031234;28;20057;-81
2023/09/15 05:48:29;;;;;;;16.67;12.18;;;;;;;;;;5046601;28;20045;-80
2023/09/15 05:51:14;;;;;;;19.65;14.82;;;;;;;;;;5046654;28;20041;-80
2023/09/15 05:54:00;;;;;;;21.55;15.13;;;;;;;;;;5046499;28;20037;-79
2023/09/15 05:56:45;;;;;;;26.02;15.43;;;;;;;;;;5046269;28;20049;-79
2023/09/15 05:59:31;;;;;;;17.73;12.55;;;;;;;;;;5050550;28;20053;-80
2023/09/15 06:02:20;;;;;;;15.98;11.18;;;;;;;;;;5050347;28;20447;-79
2023/09/15 06:05:06;;;;;;;17.15;10.48;;;;;;;;;;5035217;28;20056;-79
2023/09/15 06:07:52;;;;;;;16.33;10.77;;;;;;;;;;5050839;28;20044;-79
2023/09/15 06:10:39;;;;;;;16.73;10.30;;;;;;;;;;5042259;28;20057;-79
2023/09/15 06:13:25;;;;;;;15.18;10.60;;;;;;;;;;5050249;28;20037;-78
2023/09/15 06:16:12;;;;;;;19.17;10.40;;;;;;;;;;5050631;28;20052;-79
2023/09/15 06:18:57;;;;;;;12.50;10.70;;;;;;;;;;5047255;28;20037;-78
2023/09/15 06:21:43;;;;;;;15.65;10.30;;;;;;;;;;5036517;28;20061;-80
2023/09/15 06:24:28;;;;;;;17.73;9.82;;;;;;;;;;5033769;28;20052;-78
2023/09/15 06:27:14;;;;;;;20.20;10.52;;;;;;;;;;5050570;28;20045;-79
2023/09/15 06:30:03;;;;;;;14.65;9.93;;;;;;;;;;5049203;28;20045;-78
2023/09/15 06:32:48;;;;;;;15.63;10.48;;;;;;;;;;5040887;28;20052;-79
2023/09/15 06:35:34;;;;;;;14.93;9.60;;;;;;;;;;5048049;28;20036;-80
2023/09/15 06:38:19;;;;;;;13.98;10.10;;;;;;;;;;5049207;28;21729;-78
2023/09/15 06:41:05;;;;;;;16.60;10.75;;;;;;;;;;5048508;28;20037;-80
2023/09/15 06:43:50;;;;;;;15.80;10.23;;;;;;;;;;5040955;28;20067;-79
2023/09/15 06:46:36;;;;;;;15.35;9.93;;;;;;;;;;5047407;28;20404;-77
2023/09/15 06:49:21;;;;;;;16.15;10.43;;;;;;;;;;5040633;28;20056;-79
2023/09/15 06:52:07;;;;;;;18.98;12.65;;;;;;;;;;5049021;28;20045;-79
2023/09/15 06:54:53;;;;;;;22.08;13.77;;;;;;;;;;5048525;28;20088;-80
2023/09/15 06:57:38;;;;;;;24.67;12.73;;;;;;;;;;5052824;28;20049;-77
2023/09/15 07:00:23;;;;;;;25.42;15.45;;;;;;;;;;5047590;28;20041;-78
2023/09/15 07:03:09;;;;;;;22.77;14.50;;;;;;;;;;5046642;28;20033;-80
2023/09/15 07:05:54;;;;;;;25.75;11.27;;;;;;;;;;5048915;28;20041;-79
2023/09/15 07:08:41;;;;;;;20.77;10.20;;;;;;;;;;5040081;28;20052;-78
2023/09/15 07:11:26;;;;;;;16.52;10.02;;;;;;;;;;5048001;28;20041;-79
2023/09/15 07:14:12;;;;;;;15.43;8.45;;;;;;;;;;5048424;28;20049;-79
2023/09/15 07:16:57;;;;;;;17.85;9.68;;;;;;;;;;5048942;28;20487;-79
2023/09/15 07:19:45;;;;;;;11.80;8.93;;;;;;;;;;5047867;28;20439;-76
2023/09/15 07:22:31;;;;;;;15.52;8.13;;;;;;;;;;5048011;28;20052;-79
2023/09/15 07:25:16;;;;;;;15.98;8.70;;;;;;;;;;5048096;28;20053;-78
2023/09/15 07:28:03;;;;;;;15.75;8.40;;;;;;;;;;5039692;28;20044;-79
2023/09/15 07:30:49;;;;;;;16.02;8.80;;;;;;;;;;5047943;28;20404;-79
2023/09/15 07:33:35;;;;;;;16.55;9.07;;;;;;;;;;5047725;28;20037;-79
2023/09/15 07:36:20;;;;;;;13.35;7.95;;;;;;;;;;5047892;28;20033;-81
2023/09/15 07:39:06;;;;;;;13.15;8.40;;;;;;;;;;5048159;28;20049;-78
2023/09/15 07:41:52;;;;;;;12.63;7.80;;;;;;;;;;5039990;28;20048;-78
2023/09/15 07:44:38;;;;;;;10.50;7.13;;;;;;;;;;5046661;28;20371;-79
2023/09/15 07:47:24;;;;;;;12.45;7.10;;;;;;;;;;5047900;28;20037;-78
2023/09/15 07:50:10;;;;;;;9.80;7.53;;;;;;;;;;5047731;28;20405;-81
2023/09/15 07:52:55;;;;;;;10.90;7.18;;;;;;;;;;5047303;28;20049;-78
2023/09/15 07:55:40;;;;;;;11.15;7.97;;;;;;;;;;5052753;28;20388;-78
2023/09/15 07:58:25;;;;;;;11.32;7.50;;;;;;;;;;5039699;28;20395;-79
2023/09/15 08:01:11;;;;;;;11.43;6.90;;;;;;;;;;5047658;28;20036;-80
2023/09/15 08:03:57;;;;;;;11.88;7.50;;;;;;;;;;5047010;28;20057;-78
2023/09/15 08:06:42;;;;;;;12.38;7.10;;;;;;;;;;5031335;28;20041;-80
2023/09/15 08:09:27;;;;;;;9.40;6.40;;;;;;;;;;5043281;28;20037;-80
2023/09/15 08:12:12;;;;;;;10.75;7.20;;;;;;;;;;5047981;28;20040;-79
2023/09/15 08:14:58;;;;;;;12.88;8.63;;;;;;;;;;5048185;28;20402;-79
2023/09/15 08:17:43;;;;;;;12.82;8.05;;;;;;;;;;5047782;28;20128;-79
2023/09/15 08:20:29;;;;;;;7.95;5.18;;;;;;;;;;5038783;28;20045;-80
2023/09/15 08:23:13;;;;;;;13.27;8.05;;;;;;;;;;5048187;28;20392;-80
2023/09/15 08:26:01;;;;;;;9.45;6.90;;;;;;;;;;5047395;28;20056;-79
2023/09/15 08:28:47;;;;;;;10.38;7.53;;;;;;;;;;5048016;28;20033;-78
2023/09/15 08:31:33;;;;;;;12.45;7.25;;;;;;;;;;5051384;28;20041;-78
2023/09/15 08:34:19;;;;;;;9.93;5.57;;;;;;;;;;5038391;28;20036;-80
2023/09/15 08:37:04;;;;;;;8.00;6.10;;;;;;;;;;5041200;28;20471;-79
2023/09/15 08:39:50;;;;;;;10.60;7.75;;;;;;;;;;5039512;28;20407;-79
2023/09/15 08:42:35;;;;;;;10.77;7.22;;;;;;;;;;5039255;28;20041;-81
2023/09/15 08:45:22;;;;;;;9.13;5.97;;;;;;;;;;5047583;28;20048;-80
2023/09/15 08:48:10;;;;;;;7.72;6.93;;;;;;;;;;5039660;28;20056;-80
2023/09/15 08:50:58;;;;;;;9.13;6.40;;;;;;;;;;5046706;28;20048;-79
2023/09/15 08:53:45;;;;;;;9.15;6.75;;;;;;;;;;5046403;28;20040;-79
2023/09/15 08:56:31;;;;;;;13.45;8.50;;;;;;;;;;5047209;28;20049;-79
2023/09/15 08:59:17;;;;;;;9.63;7.78;;;;;;;;;;5048590;28;20033;-79
2023/09/15 09:02:03;;;;;;;13.02;8.15;;;;;;;;;;5032371;28;20042;-81
2023/09/15 09:04:49;;;;;;;7.18;6.25;;;;;;;;;;5045123;28;20037;-79
2023/09/15 09:07:37;;;;;;;11.05;7.15;;;;;;;;;;5032366;28;20045;-80
2023/09/15 09:10:25;;;;;;;8.65;6.10;;;;;;;;;;5047374;28;20033;-80
2023/09/15 09:13:11;;;;;;;13.50;6.43;;;;;;;;;;5046779;28;20495;-78
2023/09/15 09:15:57;;;;;;;6.18;5.50;;;;;;;;;;5039267;28;20044;-78
2023/09/15 09:18:42;;;;;;;11.40;6.03;;;;;;;;;;5047119;28;20041;-80
2023/09/15 09:21:30;;;;;;;8.13;6.85;;;;;;;;;;5046974;28;20696;-79
2023/09/15 09:24:15;;;;;;;7.18;6.35;;;;;;;;;;5038384;28;20056;-81
2023/09/15 09:27:06;;;;;;;7.22;5.43;;;;;;;;;;5031905;28;20044;-81
2023/09/15 09:29:54;;;;;;;7.78;6.38;;;;;;;;;;5031584;28;20547;-82
2023/09/15 09:32:39;;;;;;;8.05;6.13;;;;;;;;;;5031004;28;20052;-82
2023/09/15 09:35:25;;;;;;;7.05;6.22;;;;;;;;;;5024771;28;20049;-83
2023/09/15 09:38:13;;;;;;;6.22;5.63;;;;;;;;;;5047298;28;20044;-80
2023/09/15 09:40:59;;;;;;;6.82;5.50;;;;;;;;;;5038899;28;20053;-81
2023/09/15 09:43:48;;;;;;;6.82;6.03;;;;;;;;;;5045455;28;20038;-80
2023/09/15 09:46:36;;;;;;;7.63;5.63;;;;;;;;;;5046590;28;20033;-80
2023/09/15 09:49:22;;;;;;;6.15;5.55;;;;;;;;;;5038070;28;20400;-80
2023/09/15 09:52:08;;;;;;;9.18;6.10;;;;;;;;;;5038617;28;20045;-79
2023/09/15 09:54:54;;;;;;;7.25;5.32;;;;;;;;;;5046024;28;20041;-81
2023/09/15 09:57:40;;;;;;;6.35;5.25;;;;;;;;;;5032046;28;20036;-79
2023/09/15 10:00:25;;;;;;;6.32;4.95;;;;;;;;;;5046692;28;20053;-78
2023/09/15 10:03:10;;;;;;;6.40;5.20;;;;;;;;;;5031052;28;20041;-78
2023/09/15 10:05:57;;;;;;;9.73;5.05;;;;;;;;;;5045831;28;20044;-80
2023/09/15 10:08:45;;;;;;;9.45;5.82;;;;;;;;;;5047372;28;20052;-78
2023/09/15 10:11:31;;;;;;;6.40;5.53;;;;;;;;;;5046822;28;20045;-79
2023/09/15 10:14:18;;;;;;;6.47;5.50;;;;;;;;;;5038736;28;20041;-77
2023/09/15 10:17:05;;;;;;;8.70;6.80;;;;;;;;;;5046477;28;20045;-80
2023/09/15 10:19:51;;;;;;;7.95;6.75;;;;;;;;;;5039000;28;20037;-81
2023/09/15 10:22:37;;;;;;;11.57;6.32;;;;;;;;;;5047003;28;20041;-80
2023/09/15 10:25:24;;;;;;;7.93;6.20;;;;;;;;;;5025037;28;20053;-79
2023/09/15 10:28:13;;;;;;;7.35;5.55;;;;;;;;;;5047038;28;20476;-79
2023/09/15 10:30:58;;;;;;;7.45;6.65;;;;;;;;;;5043140;28;20037;-78
2023/09/15 10:33:44;;;;;;;9.95;6.85;;;;;;;;;;5046056;28;20045;-79
2023/09/15 10:36:31;;;;;;;7.38;6.30;;;;;;;;;;5047140;28;20037;-78
2023/09/15 10:39:17;;;;;;;7.60;5.80;;;;;;;;;;5046185;28;20041;-79
2023/09/15 10:42:08;;;;;;;8.40;6.03;;;;;;;;;;5046261;28;20041;-77
2023/09/15 10:44:53;;;;;;;6.40;5.32;;;;;;;;;;5044699;28;20053;-77
2023/09/15 10:47:39;;;;;;;5.57;4.97;;;;;;;;;;5049876;28;20416;-77
2023/09/15 10:50:32;;;;;;;7.20;5.50;;;;;;;;;;5049825;28;20044;-77
2023/09/15 10:53:20;;;;;;;6.70;5.07;;;;;;;;;;5041426;28;20407;-81
2023/09/15 10:56:06;;;;;;;7.35;6.07;;;;;;;;;;5035914;28;20039;-80
2023/09/15 10:58:52;;;;;;;6.80;5.50;;;;;;;;;;5055446;28;20041;-78
2023/09/15 11:01:43;;;;;;;7.20;5.82;;;;;;;;;;5049728;28;20041;-79
2023/09/15 11:04:29;;;;;;;8.15;5.82;;;;;;;;;;5049882;28;20041;-78
2023/09/15 11:07:16;;;;;;;8.00;5.72;;;;;;;;;;5049715;28;20037;-80
2023/09/15 11:10:02;;;;;;;6.38;5.70;;;;;;;;;;5046568;28;20037;-81
2023/09/15 11:12:48;;;;;;;6.88;5.30;;;;;;;;;;5053010;28;20400;-79
2023/09/15 11:15:33;;;;;;;6.38;5.05;;;;;;;;;;5034538;28;20045;-81
2023/09/15 11:18:18;;;;;;;10.10;5.60;;;;;;;;;;5041209;28;20044;-79
2023/09/15 11:21:05;;;;;;;5.60;5.10;;;;;;;;;;5042516;28;20045;-80
2023/09/15 11:23:50;;;;;;;7.13;5.63;;;;;;;;;;5034118;28;20052;-80
2023/09/15 11:26:44;;;;;;;6.55;5.30;;;;;;;;;;5039309;28;20041;-78
2023/09/15 11:29:31;;;;;;;6.53;5.53;;;;;;;;;;5034729;28;20483;-78
2023/09/15 11:32:16;;;;;;;9.10;5.78;;;;;;;;;;5040763;28;20049;-78
2023/09/15 11:35:04;;;;;;;7.65;5.75;;;;;;;;;;5041982;28;20038;-78
2023/09/15 11:37:51;;;;;;;7.03;4.57;;;;;;;;;;5049001;28;20049;-79
2023/09/15 11:40:37;;;;;;;9.90;5.07;;;;;;;;;;5048347;28;20049;-78
2023/09/15 11:43:23;;;;;;;6.55;5.03;;;;;;;;;;5033873;28;20484;-80
2023/09/15 11:46:09;;;;;;;6.68;5.28;;;;;;;;;;5049309;28;20052;-80
2023/09/15 11:48:55;;;;;;;5.75;5.03;;;;;;;;;;5048408;28;20049;-77
2023/09/15 11:51:43;;;;;;;5.13;4.65;;;;;;;;;;5048807;28;20052;-79
2023/09/15 11:54:30;;;;;;;10.15;6.10;;;;;;;;;;5048272;28;20053;-79
2023/09/15 11:57:15;;;;;;;5.72;4.63;;;;;;;;;;5048448;28;20037;-79
2023/09/15 12:00:02;;;;;;;5.85;5.07;;;;;;;;;;5049010;28;20053;-76
2023/09/15 12:02:59;;;;;;;4.90;4.40;;;;;;;;;;5048109;28;20496;-78
2023/09/15 12:05:44;;;;;;;7.95;5.40;;;;;;;;;;5048982;28;20041;-78
2023/09/15 12:08:29;;;;;;;6.85;5.38;;;;;;;;;;5048520;28;20472;-81
2023/09/15 12:11:16;;;;;;;6.82;5.57;;;;;;;;;;5041676;28;20045;-78
2023/09/15 12:14:06;;;;;;;7.47;5.35;;;;;;;;;;5047469;28;20053;-79
2023/09/15 12:16:57;;;;;;;8.52;6.00;;;;;;;;;;5053685;28;20041;-81
2023/09/15 12:19:42;;;;;;;10.07;5.65;;;;;;;;;;5053757;28;20041;-78
2023/09/15 12:22:54;;;;;;;6.32;5.65;;;;;;;;;;5051590;28;20045;-78
2023/09/15 12:25:40;;;;;;;5.63;5.07;;;;;;;;;;5059718;28;20045;-78
2023/09/15 12:28:26;;;;;;;6.18;5.15;;;;;;;;;;5054096;28;20045;-77
2023/09/15 12:31:20;;;;;;;8.02;5.45;;;;;;;;;;5054097;28;20488;-78
2023/09/15 12:34:05;;;;;;;6.05;5.45;;;;;;;;;;5041649;28;20041;-80
2023/09/15 12:36:53;;;;;;;7.32;5.53;;;;;;;;;;5053411;28;20045;-81
2023/09/15 12:39:39;;;;;;;5.93;5.32;;;;;;;;;;5047487;28;20045;-78
2023/09/15 12:42:25;;;;;;;6.63;5.07;;;;;;;;;;5047979;28;20041;-78
2023/09/15 12:45:10;;;;;;;10.25;6.60;;;;;;;;;;5047958;28;20045;-79
2023/09/15 12:47:56;;;;;;;8.82;5.95;;;;;;;;;;5025467;28;20041;-78
2023/09/15 12:50:41;;;;;;;6.65;5.43;;;;;;;;;;5047630;28;20057;-82
2023/09/15 12:53:27;;;;;;;6.50;5.90;;;;;;;;;;5047618;28;20404;-76
2023/09/15 12:56:12;;;;;;;6.30;5.70;;;;;;;;;;5038874;28;20037;-79
2023/09/15 12:58:59;;;;;;;6.75;5.38;;;;;;;;;;5047702;28;20045;-79
2023/09/15 13:01:45;;;;;;;7.18;5.85;;;;;;;;;;5039293;28;20048;-80
2023/09/15 13:04:31;;;;;;;7.50;5.93;;;;;;;;;;5047256;28;20044;-80
2023/09/15 13:07:16;;;;;;;7.38;5.85;;;;;;;;;;5031411;28;20045;-78
2023/09/15 13:10:01;;;;;;;8.30;5.75;;;;;;;;;;5047321;28;20052;-80
2023/09/15 13:12:47;;;;;;;6.10;5.50;;;;;;;;;;5025931;28;20040;-78
2023/09/15 13:15:32;;;;;;;6.93;5.40;;;;;;;;;;5048248;28;20044;-81
2023/09/15 13:18:23;;;;;;;8.02;6.45;;;;;;;;;;5047061;28;20048;-80
2023/09/15 13:21:09;;;;;;;7.57;6.35;;;;;;;;;;5042295;28;20053;-80
2023/09/15 13:23:54;;;;;;;8.32;6.65;;;;;;;;;;5046908;28;20041;-78
2023/09/15 13:26:40;;;;;;;7.63;6.45;;;;;;;;;;5031825;28;20049;-78
2023/09/15 13:29:27;;;;;;;8.18;6.22;;;;;;;;;;5047224;28;20037;-79
2023/09/15 13:32:12;;;;;;;7.20;6.50;;;;;;;;;;5038612;28;20041;-80
2023/09/15 13:34:57;;;;;;;8.75;7.85;;;;;;;;;;5047080;28;20496;-80
2023/09/15 13:37:43;;;;;;;9.35;8.07;;;;;;;;;;5039143;28;20048;-79
2023/09/15 13:40:29;;;;;;;8.30;7.40;;;;;;;;;;5046747;28;20037;-79
2023/09/15 13:43:15;;;;;;;9.02;7.03;;;;;;;;;;5044880;28;20504;-78
2023/09/15 13:46:00;;;;;;;10.70;7.53;;;;;;;;;;5046268;28;20052;-80
2023/09/15 13:48:45;;;;;;;7.43;6.68;;;;;;;;;;5052368;28;20048;-78
2023/09/15 13:51:31;;;;;;;8.75;7.10;;;;;;;;;;5031799;28;20040;-77
2023/09/15 13:54:18;;;;;;;11.40;7.35;;;;;;;;;;5046519;28;20392;-79
2023/09/15 13:57:04;;;;;;;9.25;7.50;;;;;;;;;;5046654;28;20033;-78
2023/09/15 13:59:50;;;;;;;9.63;8.52;;;;;;;;;;5046654;28;20471;-77
2023/09/15 14:02:36;;;;;;;8.73;7.88;;;;;;;;;;5046198;28;20045;-79
2023/09/15 14:05:21;;;;;;;10.02;7.70;;;;;;;;;;5045667;28;20399;-79
2023/09/15 14:08:07;;;;;;;8.60;7.70;;;;;;;;;;5044466;28;20480;-79
2023/09/15 14:10:52;;;;;;;13.52;8.57;;;;;;;;;;5044744;28;20407;-79
2023/09/15 14:13:38;;;;;;;12.55;8.25;;;;;;;;;;5037021;28;20480;-79
2023/09/15 14:16:23;;;;;;;10.27;8.52;;;;;;;;;;5045270;28;21886;-79
2023/09/15 14:19:09;;;;;;;9.35;8.40;;;;;;;;;;5046917;28;20053;-79
2023/09/15 14:21:55;;;;;;;10.23;8.15;;;;;;;;;;5048840;28;20036;-80
2023/09/15 14:24:40;;;;;;;11.18;9.18;;;;;;;;;;5049980;28;20496;-79
2023/09/15 14:27:26;;;;;;;11.13;8.80;;;;;;;;;;5048861;28;20045;-80
2023/09/15 14:30:13;;;;;;;11.27;9.45;;;;;;;;;;5049759;28;20049;-79
2023/09/15 14:32:59;;;;;;;10.32;8.80;;;;;;;;;;5050514;28;20400;-80
2023/09/15 14:35:44;;;;;;;11.65;9.93;;;;;;;;;;5041541;28;20045;-80
2023/09/15 14:38:30;;;;;;;10.60;9.00;;;;;;;;;;5050427;28;20033;-77
2023/09/15 14:41:16;;;;;;;12.82;9.73;;;;;;;;;;5049674;28;20053;-80
2023/09/15 14:44:01;;;;;;;11.65;9.75;;;;;;;;;;5049695;28;20041;-79
2023/09/15 14:46:47;;;;;;;11.90;9.48;;;;;;;;;;5040333;28;20045;-77
2023/09/15 14:49:34;;;;;;;12.48;9.75;;;;;;;;;;5034224;28;20044;-80
2023/09/15 14:52:21;;;;;;;12.45;9.95;;;;;;;;;;5041565;28;20044;-81
2023/09/15 14:55:07;;;;;;;12.23;9.88;;;;;;;;;;5051538;28;20036;-79
2023/09/15 14:57:52;;;;;;;11.93;10.60;;;;;;;;;;5051594;28;20063;-78
2023/09/15 15:00:38;;;;;;;13.32;11.15;;;;;;;;;;5055763;28;20041;-78
2023/09/15 15:03:23;;;;;;;13.73;12.27;;;;;;;;;;5049142;28;20423;-78
2023/09/15 15:06:09;;;;;;;12.80;10.82;;;;;;;;;;5050767;28;20036;-79
2023/09/15 15:08:55;;;;;;;15.00;11.45;;;;;;;;;;5047814;28;20057;-78
2023/09/15 15:11:41;;;;;;;12.93;11.45;;;;;;;;;;5047743;28;20052;-77
2023/09/15 15:14:26;;;;;;;13.68;10.90;;;;;;;;;;5041761;28;20049;-80
2023/09/15 15:17:12;;;;;;;18.73;12.30;;;;;;;;;;5047167;28;20032;-80
2023/09/15 15:19:56;;;;;;;15.93;11.77;;;;;;;;;;5033755;28;20052;-77
2023/09/15 15:22:42;;;;;;;11.75;10.57;;;;;;;;;;5048008;28;20041;-77
2023/09/15 15:25:28;;;;;;;13.65;11.43;;;;;;;;;;5047368;28;20484;-77
2023/09/15 15:28:13;;;;;;;17.88;12.32;;;;;;;;;;5033269;28;20041;-79
2023/09/15 15:30:59;;;;;;;20.30;14.48;;;;;;;;;;5046825;28;20045;-78
2023/09/15 15:33:45;;;;;;;15.57;13.23;;;;;;;;;;5046897;28;20411;-77
2023/09/15 15:36:31;;;;;;;16.85;13.93;;;;;;;;;;5047242;28;20041;-79
2023/09/15 15:39:17;;;;;;;20.65;13.07;;;;;;;;;;5048182;28;20044;-79
2023/09/15 15:42:03;;;;;;;17.70;11.95;;;;;;;;;;5047937;28;20040;-78
2023/09/15 15:44:54;;;;;;;18.50;12.30;;;;;;;;;;5040246;28;20044;-78
2023/09/15 15:47:40;;;;;;;13.13;11.05;;;;;;;;;;5046693;28;20045;-80
2023/09/15 15:50:26;;;;;;;13.10;10.98;;;;;;;;;;5040547;28;20399;-77
2023/09/15 15:53:11;;;;;;;14.73;9.48;;;;;;;;;;5040087;28;20048;-78
2023/09/15 15:55:56;;;;;;;12.10;9.23;;;;;;;;;;5048251;28;20483;-79
2023/09/15 15:58:41;;;;;;;11.43;9.27;;;;;;;;;;5046268;28;20524;-80
2023/09/15 16:01:27;;;;;;;10.70;9.20;;;;;;;;;;5046129;28;20049;-80
2023/09/15 16:04:12;;;;;;;12.95;9.20;;;;;;;;;;5033745;28;20049;-80
2023/09/15 16:06:58;;;;;;;12.50;9.13;;;;;;;;;;5053766;28;20040;-79
2023/09/15 16:09:44;;;;;;;17.92;9.20;;;;;;;;;;5050396;28;20483;-79
2023/09/15 16:12:30;;;;;;;12.18;9.50;;;;;;;;;;5037385;28;20052;-79
2023/09/15 16:15:16;;;;;;;14.35;9.35;;;;;;;;;;5045952;28;20038;-80
2023/09/15 16:18:07;;;;;;;12.85;9.07;;;;;;;;;;5028474;28;20033;-79
2023/09/15 16:20:53;;;;;;;10.30;8.10;;;;;;;;;;5044969;28;20041;-80
2023/09/15 16:23:38;;;;;;;9.75;8.25;;;;;;;;;;5046050;28;20046;-80